sensor_id;sensor_type;location;lat;lon;timestamp;temperature;humidity
77865;DHT22;67061;48.524;9.040;2023-11-19T00:01:02;6.30;99.90
77865;DHT22;67061;48.524;9.040;2023-11-19T00:03:31;6.30;99.90
77865;DHT22;67061;48.524;9.040;2023-11-19T00:05:59;6.30;99.90
77865;DHT22;67061;48.524;9.040;2023-11-19T00:08:25;6.30;99.90
77865;DHT22;67061;48.524;9.040;2023-11-19T00:10:52;6.40;99.90
77865;DHT22;67061;48.524;9.040;2023-11-19T00:13:21;6.40;99.90
77865;DHT22;67061;48.524;9.040;2023-11-19T00:15:48;6.50;99.90
77865;DHT22;67061;48.524;9.040;2023-11-19T00:18:15;6.50;99.90
77865;DHT22;67061;48.524;9.040;2023-11-19T00:20:42;6.50;99.90
77865;DHT22;67061;48.524;9.040;2023-11-19T00:23:10;6.60;99.90
77865;DHT22;67061;48.524;9.040;2023-11-19T00:25:37;6.60;99.90
77865;DHT22;67061;48.524;9.040;2023-11-19T00:28:04;6.60;99.90
77865;DHT22;67061;48.524;9.040;2023-11-19T00:30:32;6.60;99.90
77865;DHT22;67061;48.524;9.040;2023-11-19T00:32:59;6.60;99.90
77865;DHT22;67061;48.524;9.040;2023-11-19T00:35:26;6.70;99.90
77865;DHT22;67061;48.524;9.040;2023-11-19T00:37:53;6.70;99.90
77865;DHT22;67061;48.524;9.040;2023-11-19T00:40:20;6.70;99.90
77865;DHT22;67061;48.524;9.040;2023-11-19T00:42:48;6.70;99.90
77865;DHT22;67061;48.524;9.040;2023-11-19T00:45:15;6.70;99.90
77865;DHT22;67061;48.524;9.040;2023-11-19T00:47:44;6.80;99.90
77865;DHT22;67061;48.524;9.040;2023-11-19T00:50:11;6.80;99.90
77865;DHT22;67061;48.524;9.040;2023-11-19T00:52:38;6.80;99.90
77865;DHT22;67061;48.524;9.040;2023-11-19T00:55:06;6.90;99.90
77865;DHT22;67061;48.524;9.040;2023-11-19T00:57:33;6.90;99.90
77865;DHT22;67061;48.524;9.040;2023-11-19T01:00:01;6.90;99.90
77865;DHT22;67061;48.524;9.040;2023-11-19T01:02:32;6.90;99.90
77865;DHT22;67061;48.524;9.040;2023-11-19T01:05:01;6.90;99.90
77865;DHT22;67061;48.524;9.040;2023-11-19T01:07:28;7.00;99.90
77865;DHT22;67061;48.524;9.040;2023-11-19T01:09:55;7.00;99.90
77865;DHT22;67061;48.524;9.040;2023-11-19T01:12:22;7.00;99.90
77865;DHT22;67061;48.524;9.040;2023-11-19T01:14:48;7.00;99.90
77865;DHT22;67061;48.524;9.040;2023-11-19T01:17:15;7.00;99.90
77865;DHT22;67061;48.524;9.040;2023-11-19T01:19:43;7.00;99.90
77865;DHT22;67061;48.524;9.040;2023-11-19T01:22:11;7.10;99.90
77865;DHT22;67061;48.524;9.040;2023-11-19T01:24:38;7.20;99.90
77865;DHT22;67061;48.524;9.040;2023-11-19T01:27:05;7.10;99.90
77865;DHT22;67061;48.524;9.040;2023-11-19T01:29:31;7.10;99.90
77865;DHT22;67061;48.524;9.040;2023-11-19T01:31:58;7.20;99.90
77865;DHT22;67061;48.524;9.040;2023-11-19T01:34:25;7.20;99.90
77865;DHT22;67061;48.524;9.040;2023-11-19T01:36:52;7.20;99.90
77865;DHT22;67061;48.524;9.040;2023-11-19T01:39:20;7.20;99.90
77865;DHT22;67061;48.524;9.040;2023-11-19T01:41:48;7.20;99.90
77865;DHT22;67061;48.524;9.040;2023-11-19T01:44:18;7.20;99.90
77865;DHT22;67061;48.524;9.040;2023-11-19T01:46:46;7.30;99.90
77865;DHT22;67061;48.524;9.040;2023-11-19T01:49:14;7.30;99.90
77865;DHT22;67061;48.524;9.040;2023-11-19T01:51:42;7.40;99.90
77865;DHT22;67061;48.524;9.040;2023-11-19T01:54:09;7.40;99.90
77865;DHT22;67061;48.524;9.040;2023-11-19T01:56:39;7.40;99.90
77865;DHT22;67061;48.524;9.040;2023-11-19T01:59:10;7.40;99.90
77865;DHT22;67061;48.524;9.040;2023-11-19T02:01:46;7.40;99.90
77865;DHT22;67061;48.524;9.040;2023-11-19T02:04:13;7.50;99.90
77865;DHT22;67061;48.524;9.040;2023-11-19T02:06:42;7.50;99.90
77865;DHT22;67061;48.524;9.040;2023-11-19T02:09:09;7.50;99.90
77865;DHT22;67061;48.524;9.040;2023-11-19T02:11:39;7.50;99.90
77865;DHT22;67061;48.524;9.040;2023-11-19T02:14:06;7.50;99.90
77865;DHT22;67061;48.524;9.040;2023-11-19T02:16:33;7.60;99.90
77865;DHT22;67061;48.524;9.040;2023-11-19T02:19:01;7.60;99.90
77865;DHT22;67061;48.524;9.040;2023-11-19T02:21:27;7.60;99.90
77865;DHT22;67061;48.524;9.040;2023-11-19T02:23:55;7.70;99.90
77865;DHT22;67061;48.524;9.040;2023-11-19T02:26:26;7.70;99.90
77865;DHT22;67061;48.524;9.040;2023-11-19T02:28:56;7.70;99.90
77865;DHT22;67061;48.524;9.040;2023-11-19T02:31:23;7.80;99.90
77865;DHT22;67061;48.524;9.040;2023-11-19T02:33:52;7.80;99.90
77865;DHT22;67061;48.524;9.040;2023-11-19T02:36:20;7.80;99.90
77865;DHT22;67061;48.524;9.040;2023-11-19T02:38:47;7.80;99.90
77865;DHT22;67061;48.524;9.040;2023-11-19T02:41:15;7.80;99.90
77865;DHT22;67061;48.524;9.040;2023-11-19T02:43:42;7.80;99.90
77865;DHT22;67061;48.524;9.040;2023-11-19T02:46:10;7.80;99.90
77865;DHT22;67061;48.524;9.040;2023-11-19T02:48:37;7.80;99.90
77865;DHT22;67061;48.524;9.040;2023-11-19T02:51:05;7.80;99.90
77865;DHT22;67061;48.524;9.040;2023-11-19T02:53:35;7.90;99.90
77865;DHT22;67061;48.524;9.040;2023-11-19T02:56:03;7.90;99.90
77865;DHT22;67061;48.524;9.040;2023-11-19T02:58:45;7.90;99.90
77865;DHT22;67061;48.524;9.040;2023-11-19T03:01:21;8.00;99.90
77865;DHT22;67061;48.524;9.040;2023-11-19T03:03:54;8.00;99.90
77865;DHT22;67061;48.524;9.040;2023-11-19T03:06:23;8.00;99.90
77865;DHT22;67061;48.524;9.040;2023-11-19T03:08:50;8.00;99.90
77865;DHT22;67061;48.524;9.040;2023-11-19T03:11:17;8.00;99.90
77865;DHT22;67061;48.524;9.040;2023-11-19T03:13:43;8.00;99.90
77865;DHT22;67061;48.524;9.040;2023-11-19T03:16:10;8.00;99.90
77865;DHT22;67061;48.524;9.040;2023-11-19T03:18:39;8.00;99.90
77865;DHT22;67061;48.524;9.040;2023-11-19T03:21:06;8.00;99.90
77865;DHT22;67061;48.524;9.040;2023-11-19T03:23:33;8.00;99.90
77865;DHT22;67061;48.524;9.040;2023-11-19T03:26:00;8.00;99.90
77865;DHT22;67061;48.524;9.040;2023-11-19T03:28:29;8.10;99.90
77865;DHT22;67061;48.524;9.040;2023-11-19T03:30:56;8.10;99.90
77865;DHT22;67061;48.524;9.040;2023-11-19T03:33:23;8.10;99.90
77865;DHT22;67061;48.524;9.040;2023-11-19T03:35:54;8.20;99.90
77865;DHT22;67061;48.524;9.040;2023-11-19T03:38:22;8.20;99.90
77865;DHT22;67061;48.524;9.040;2023-11-19T03:40:49;8.20;99.90
77865;DHT22;67061;48.524;9.040;2023-11-19T03:43:16;8.20;99.90
77865;DHT22;67061;48.524;9.040;2023-11-19T03:45:44;8.20;99.90
77865;DHT22;67061;48.524;9.040;2023-11-19T03:48:11;8.20;99.90
77865;DHT22;67061;48.524;9.040;2023-11-19T03:50:38;8.20;99.90
77865;DHT22;67061;48.524;9.040;2023-11-19T03:53:07;8.10;99.90
77865;DHT22;67061;48.524;9.040;2023-11-19T03:55:34;8.20;99.90
77865;DHT22;67061;48.524;9.040;2023-11-19T03:58:01;8.20;99.90
77865;DHT22;67061;48.524;9.040;2023-11-19T04:00:27;8.20;99.90
77865;DHT22;67061;48.524;9.040;2023-11-19T04:02:54;8.20;99.90
77865;DHT22;67061;48.524;9.040;2023-11-19T04:05:21;8.20;99.90
77865;DHT22;67061;48.524;9.040;2023-11-19T04:07:49;8.20;99.90
77865;DHT22;67061;48.524;9.040;2023-11-19T04:10:17;8.20;99.90
77865;DHT22;67061;48.524;9.040;2023-11-19T04:13:04;8.30;99.90
77865;DHT22;67061;48.524;9.040;2023-11-19T04:15:33;8.30;99.90
77865;DHT22;67061;48.524;9.040;2023-11-19T04:18:00;8.30;99.90
77865;DHT22;67061;48.524;9.040;2023-11-19T04:20:27;8.30;99.90
77865;DHT22;67061;48.524;9.040;2023-11-19T04:22:54;8.30;99.90
77865;DHT22;67061;48.524;9.040;2023-11-19T04:25:23;8.30;99.90
77865;DHT22;67061;48.524;9.040;2023-11-19T04:27:51;8.30;99.90
77865;DHT22;67061;48.524;9.040;2023-11-19T04:30:18;8.40;99.90
77865;DHT22;67061;48.524;9.040;2023-11-19T04:32:45;8.40;99.90
77865;DHT22;67061;48.524;9.040;2023-11-19T04:35:14;8.40;99.90
77865;DHT22;67061;48.524;9.040;2023-11-19T04:37:41;8.40;99.90
77865;DHT22;67061;48.524;9.040;2023-11-19T04:40:09;8.40;99.90
77865;DHT22;67061;48.524;9.040;2023-11-19T04:42:38;8.40;99.90
77865;DHT22;67061;48.524;9.040;2023-11-19T04:45:07;8.50;99.90
77865;DHT22;67061;48.524;9.040;2023-11-19T04:47:35;8.50;99.90
77865;DHT22;67061;48.524;9.040;2023-11-19T04:50:03;8.50;99.90
77865;DHT22;67061;48.524;9.040;2023-11-19T04:52:30;8.50;99.90
77865;DHT22;67061;48.524;9.040;2023-11-19T04:54:56;8.50;99.90
77865;DHT22;67061;48.524;9.040;2023-11-19T04:57:23;8.50;99.90
77865;DHT22;67061;48.524;9.040;2023-11-19T04:59:51;8.50;99.90
77865;DHT22;67061;48.524;9.040;2023-11-19T05:02:18;8.50;99.90
77865;DHT22;67061;48.524;9.040;2023-11-19T05:04:45;8.50;99.90
77865;DHT22;67061;48.524;9.040;2023-11-19T05:07:14;8.50;99.90
77865;DHT22;67061;48.524;9.040;2023-11-19T05:09:41;8.50;99.90
77865;DHT22;67061;48.524;9.040;2023-11-19T05:12:08;8.50;99.90
77865;DHT22;67061;48.524;9.040;2023-11-19T05:14:37;8.50;99.90
77865;DHT22;67061;48.524;9.040;2023-11-19T05:17:05;8.50;99.90
77865;DHT22;67061;48.524;9.040;2023-11-19T05:19:33;8.50;99.90
77865;DHT22;67061;48.524;9.040;2023-11-19T05:22:00;8.50;99.90
77865;DHT22;67061;48.524;9.040;2023-11-19T05:24:27;8.60;99.90
77865;DHT22;67061;48.524;9.040;2023-11-19T05:26:53;8.80;99.90
77865;DHT22;67061;48.524;9.040;2023-11-19T05:29:20;9.00;99.90
77865;DHT22;67061;48.524;9.040;2023-11-19T05:31:47;9.00;99.90
77865;DHT22;67061;48.524;9.040;2023-11-19T05:34:15;9.00;99.90
77865;DHT22;67061;48.524;9.040;2023-11-19T05:36:42;9.20;99.90
77865;DHT22;67061;48.524;9.040;2023-11-19T05:39:09;9.20;99.90
77865;DHT22;67061;48.524;9.040;2023-11-19T05:41:37;9.20;99.90
77865;DHT22;67061;48.524;9.040;2023-11-19T05:44:04;9.40;99.90
77865;DHT22;67061;48.524;9.040;2023-11-19T05:46:31;9.40;99.90
77865;DHT22;67061;48.524;9.040;2023-11-19T05:48:58;9.40;99.90
77865;DHT22;67061;48.524;9.040;2023-11-19T05:51:26;9.40;99.90
77865;DHT22;67061;48.524;9.040;2023-11-19T05:53:53;9.40;99.90
77865;DHT22;67061;48.524;9.040;2023-11-19T05:56:21;9.40;99.90
77865;DHT22;67061;48.524;9.040;2023-11-19T05:58:48;9.40;99.90
77865;DHT22;67061;48.524;9.040;2023-11-19T06:01:15;9.40;99.90
77865;DHT22;67061;48.524;9.040;2023-11-19T06:03:42;9.50;99.90
77865;DHT22;67061;48.524;9.040;2023-11-19T06:06:13;9.50;99.90
77865;DHT22;67061;48.524;9.040;2023-11-19T06:08:41;9.50;99.90
77865;DHT22;67061;48.524;9.040;2023-11-19T06:11:12;9.60;99.90
77865;DHT22;67061;48.524;9.040;2023-11-19T06:13:45;9.60;99.90
77865;DHT22;67061;48.524;9.040;2023-11-19T06:16:13;9.60;99.90
77865;DHT22;67061;48.524;9.040;2023-11-19T06:18:41;9.70;99.90
77865;DHT22;67061;48.524;9.040;2023-11-19T06:21:09;9.60;99.90
77865;DHT22;67061;48.524;9.040;2023-11-19T06:23:36;9.60;99.90
77865;DHT22;67061;48.524;9.040;2023-11-19T06:26:05;9.60;99.90
77865;DHT22;67061;48.524;9.040;2023-11-19T06:28:32;9.60;99.90
77865;DHT22;67061;48.524;9.040;2023-11-19T06:30:59;9.50;99.90
77865;DHT22;67061;48.524;9.040;2023-11-19T06:33:26;9.60;99.90
77865;DHT22;67061;48.524;9.040;2023-11-19T06:35:53;9.60;99.90
77865;DHT22;67061;48.524;9.040;2023-11-19T06:38:20;9.60;99.90
77865;DHT22;67061;48.524;9.040;2023-11-19T06:40:47;9.60;99.90
77865;DHT22;67061;48.524;9.040;2023-11-19T06:43:15;9.60;99.90
77865;DHT22;67061;48.524;9.040;2023-11-19T06:45:42;9.50;99.90
77865;DHT22;67061;48.524;9.040;2023-11-19T06:48:09;9.60;99.90
77865;DHT22;67061;48.524;9.040;2023-11-19T06:50:36;9.60;99.90
77865;DHT22;67061;48.524;9.040;2023-11-19T06:53:04;9.60;99.90
77865;DHT22;67061;48.524;9.040;2023-11-19T06:55:32;9.70;99.90
77865;DHT22;67061;48.524;9.040;2023-11-19T06:58:00;9.70;99.90
77865;DHT22;67061;48.524;9.040;2023-11-19T07:00:29;9.70;99.90
77865;DHT22;67061;48.524;9.040;2023-11-19T07:02:58;9.80;99.90
77865;DHT22;67061;48.524;9.040;2023-11-19T07:05:25;9.70;99.90
77865;DHT22;67061;48.524;9.040;2023-11-19T07:07:52;9.80;99.90
77865;DHT22;67061;48.524;9.040;2023-11-19T07:10:19;9.80;99.90
77865;DHT22;67061;48.524;9.040;2023-11-19T07:12:46;9.80;99.90
77865;DHT22;67061;48.524;9.040;2023-11-19T07:15:15;9.80;99.90
77865;DHT22;67061;48.524;9.040;2023-11-19T07:17:44;9.90;99.90
77865;DHT22;67061;48.524;9.040;2023-11-19T07:20:11;9.90;99.90
77865;DHT22;67061;48.524;9.040;2023-11-19T07:22:42;10.00;99.90
77865;DHT22;67061;48.524;9.040;2023-11-19T07:25:12;10.00;99.90
77865;DHT22;67061;48.524;9.040;2023-11-19T07:27:39;10.00;99.90
77865;DHT22;67061;48.524;9.040;2023-11-19T07:30:06;10.00;99.90
77865;DHT22;67061;48.524;9.040;2023-11-19T07:32:33;10.00;99.90
77865;DHT22;67061;48.524;9.040;2023-11-19T07:35:02;9.90;99.90
77865;DHT22;67061;48.524;9.040;2023-11-19T07:37:29;9.90;99.90
77865;DHT22;67061;48.524;9.040;2023-11-19T07:39:56;10.00;99.90
77865;DHT22;67061;48.524;9.040;2023-11-19T07:42:23;10.00;99.90
77865;DHT22;67061;48.524;9.040;2023-11-19T07:44:50;10.00;99.90
77865;DHT22;67061;48.524;9.040;2023-11-19T07:47:17;10.00;99.90
77865;DHT22;67061;48.524;9.040;2023-11-19T07:49:44;10.00;99.90
77865;DHT22;67061;48.524;9.040;2023-11-19T07:52:12;10.00;99.90
77865;DHT22;67061;48.524;9.040;2023-11-19T07:54:39;10.00;99.90
77865;DHT22;67061;48.524;9.040;2023-11-19T07:57:06;10.00;99.90
77865;DHT22;67061;48.524;9.040;2023-11-19T07:59:32;10.00;99.90
77865;DHT22;67061;48.524;9.040;2023-11-19T08:01:59;10.00;99.90
77865;DHT22;67061;48.524;9.040;2023-11-19T08:04:26;10.10;99.90
77865;DHT22;67061;48.524;9.040;2023-11-19T08:06:53;10.10;99.90
77865;DHT22;67061;48.524;9.040;2023-11-19T08:09:21;10.10;99.90
77865;DHT22;67061;48.524;9.040;2023-11-19T08:11:48;10.10;99.90
77865;DHT22;67061;48.524;9.040;2023-11-19T08:14:16;10.10;99.90
77865;DHT22;67061;48.524;9.040;2023-11-19T08:16:43;10.20;99.90
77865;DHT22;67061;48.524;9.040;2023-11-19T08:19:10;10.20;99.90
77865;DHT22;67061;48.524;9.040;2023-11-19T08:21:38;10.20;99.90
77865;DHT22;67061;48.524;9.040;2023-11-19T08:24:05;10.20;99.90
77865;DHT22;67061;48.524;9.040;2023-11-19T08:26:33;10.20;99.90
77865;DHT22;67061;48.524;9.040;2023-11-19T08:29:00;10.20;99.90
77865;DHT22;67061;48.524;9.040;2023-11-19T08:31:27;10.20;99.90
77865;DHT22;67061;48.524;9.040;2023-11-19T08:33:54;10.30;99.90
77865;DHT22;67061;48.524;9.040;2023-11-19T08:36:21;10.40;99.90
77865;DHT22;67061;48.524;9.040;2023-11-19T08:38:48;10.50;99.90
77865;DHT22;67061;48.524;9.040;2023-11-19T08:41:15;10.50;99.90
77865;DHT22;67061;48.524;9.040;2023-11-19T08:43:44;10.60;99.90
77865;DHT22;67061;48.524;9.040;2023-11-19T08:46:11;10.80;99.90
77865;DHT22;67061;48.524;9.040;2023-11-19T08:48:39;11.00;99.90
77865;DHT22;67061;48.524;9.040;2023-11-19T08:51:06;11.10;99.90
77865;DHT22;67061;48.524;9.040;2023-11-19T08:53:33;11.10;99.90
77865;DHT22;67061;48.524;9.040;2023-11-19T08:56:00;11.10;99.90
77865;DHT22;67061;48.524;9.040;2023-11-19T08:58:28;11.10;99.90
77865;DHT22;67061;48.524;9.040;2023-11-19T09:00:57;11.30;99.90
77865;DHT22;67061;48.524;9.040;2023-11-19T09:03:24;11.40;99.90
77865;DHT22;67061;48.524;9.040;2023-11-19T09:05:53;11.50;99.90
77865;DHT22;67061;48.524;9.040;2023-11-19T09:08:20;11.50;99.90
77865;DHT22;67061;48.524;9.040;2023-11-19T09:10:46;11.70;99.90
77865;DHT22;67061;48.524;9.040;2023-11-19T09:13:13;11.80;99.90
77865;DHT22;67061;48.524;9.040;2023-11-19T09:15:40;11.90;99.90
77865;DHT22;67061;48.524;9.040;2023-11-19T09:18:09;11.90;99.90
77865;DHT22;67061;48.524;9.040;2023-11-19T09:20:36;11.90;99.90
77865;DHT22;67061;48.524;9.040;2023-11-19T09:23:04;11.90;99.90
77865;DHT22;67061;48.524;9.040;2023-11-19T09:25:31;12.00;99.90
77865;DHT22;67061;48.524;9.040;2023-11-19T09:27:57;11.90;99.90
77865;DHT22;67061;48.524;9.040;2023-11-19T09:30:24;12.00;99.90
77865;DHT22;67061;48.524;9.040;2023-11-19T09:32:51;12.00;99.90
77865;DHT22;67061;48.524;9.040;2023-11-19T09:35:19;12.00;99.90
77865;DHT22;67061;48.524;9.040;2023-11-19T09:37:46;12.10;99.90
77865;DHT22;67061;48.524;9.040;2023-11-19T09:40:13;12.20;99.90
77865;DHT22;67061;48.524;9.040;2023-11-19T09:42:43;12.30;99.90
77865;DHT22;67061;48.524;9.040;2023-11-19T09:45:14;12.40;99.90
77865;DHT22;67061;48.524;9.040;2023-11-19T09:47:44;12.50;99.90
77865;DHT22;67061;48.524;9.040;2023-11-19T09:50:14;12.50;99.90
77865;DHT22;67061;48.524;9.040;2023-11-19T09:52:44;12.60;99.90
77865;DHT22;67061;48.524;9.040;2023-11-19T09:55:11;12.60;99.90
77865;DHT22;67061;48.524;9.040;2023-11-19T09:57:39;12.60;99.90
77865;DHT22;67061;48.524;9.040;2023-11-19T10:00:07;12.70;99.90
77865;DHT22;67061;48.524;9.040;2023-11-19T10:02:36;12.60;99.90
77865;DHT22;67061;48.524;9.040;2023-11-19T10:05:05;12.60;99.90
77865;DHT22;67061;48.524;9.040;2023-11-19T10:07:32;12.70;99.90
77865;DHT22;67061;48.524;9.040;2023-11-19T10:10:02;12.90;99.90
77865;DHT22;67061;48.524;9.040;2023-11-19T10:12:30;12.90;99.90
77865;DHT22;67061;48.524;9.040;2023-11-19T10:14:58;12.90;99.90
77865;DHT22;67061;48.524;9.040;2023-11-19T10:17:28;13.00;99.90
77865;DHT22;67061;48.524;9.040;2023-11-19T10:19:55;13.00;98.60
77865;DHT22;67061;48.524;9.040;2023-11-19T10:22:23;13.00;98.80
77865;DHT22;67061;48.524;9.040;2023-11-19T10:24:49;13.10;98.70
77865;DHT22;67061;48.524;9.040;2023-11-19T10:27:18;13.10;98.70
77865;DHT22;67061;48.524;9.040;2023-11-19T10:29:45;13.10;99.50
77865;DHT22;67061;48.524;9.040;2023-11-19T10:32:13;13.10;98.80
77865;DHT22;67061;48.524;9.040;2023-11-19T10:34:40;13.10;98.30
77865;DHT22;67061;48.524;9.040;2023-11-19T10:37:08;13.30;97.00
77865;DHT22;67061;48.524;9.040;2023-11-19T10:39:54;13.30;96.50
77865;DHT22;67061;48.524;9.040;2023-11-19T10:42:23;13.30;97.70
77865;DHT22;67061;48.524;9.040;2023-11-19T10:44:50;13.30;96.10
77865;DHT22;67061;48.524;9.040;2023-11-19T10:47:19;13.30;96.20
77865;DHT22;67061;48.524;9.040;2023-11-19T10:49:46;13.30;96.30
77865;DHT22;67061;48.524;9.040;2023-11-19T10:52:17;13.30;97.10
77865;DHT22;67061;48.524;9.040;2023-11-19T10:54:48;13.30;95.60
77865;DHT22;67061;48.524;9.040;2023-11-19T10:57:20;13.40;95.70
77865;DHT22;67061;48.524;9.040;2023-11-19T10:59:49;13.40;96.00
77865;DHT22;67061;48.524;9.040;2023-11-19T11:02:22;13.30;96.70
77865;DHT22;67061;48.524;9.040;2023-11-19T11:04:51;13.40;96.80
77865;DHT22;67061;48.524;9.040;2023-11-19T11:07:21;13.30;98.60
77865;DHT22;67061;48.524;9.040;2023-11-19T11:09:51;13.50;95.00
77865;DHT22;67061;48.524;9.040;2023-11-19T11:12:22;13.50;95.30
77865;DHT22;67061;48.524;9.040;2023-11-19T11:14:53;13.50;93.50
77865;DHT22;67061;48.524;9.040;2023-11-19T11:17:24;13.50;93.00
77865;DHT22;67061;48.524;9.040;2023-11-19T11:19:53;13.50;93.30
77865;DHT22;67061;48.524;9.040;2023-11-19T11:22:21;13.60;93.40
77865;DHT22;67061;48.524;9.040;2023-11-19T11:25:12;13.70;92.00
77865;DHT22;67061;48.524;9.040;2023-11-19T11:27:59;13.70;92.30
77865;DHT22;67061;48.524;9.040;2023-11-19T11:30:43;13.70;91.50
77865;DHT22;67061;48.524;9.040;2023-11-19T11:33:25;13.80;90.80
77865;DHT22;67061;48.524;9.040;2023-11-19T11:35:58;13.90;90.40
77865;DHT22;67061;48.524;9.040;2023-11-19T11:38:34;13.90;91.10
77865;DHT22;67061;48.524;9.040;2023-11-19T11:41:16;14.00;90.70
77865;DHT22;67061;48.524;9.040;2023-11-19T11:43:45;14.10;90.60
77865;DHT22;67061;48.524;9.040;2023-11-19T11:49:13;14.20;91.20
77865;DHT22;67061;48.524;9.040;2023-11-19T11:52:01;14.20;89.60
77865;DHT22;67061;48.524;9.040;2023-11-19T11:54:29;14.10;90.00
77865;DHT22;67061;48.524;9.040;2023-11-19T11:57:04;14.10;89.40
77865;DHT22;67061;48.524;9.040;2023-11-19T11:59:37;14.10;90.50
77865;DHT22;67061;48.524;9.040;2023-11-19T12:02:04;14.10;90.20
77865;DHT22;67061;48.524;9.040;2023-11-19T12:04:36;14.10;90.10
77865;DHT22;67061;48.524;9.040;2023-11-19T12:07:04;14.00;89.40
77865;DHT22;67061;48.524;9.040;2023-11-19T12:09:31;14.00;88.80
77865;DHT22;67061;48.524;9.040;2023-11-19T12:12:11;13.90;88.70
77865;DHT22;67061;48.524;9.040;2023-11-19T12:15:06;13.90;89.20
77865;DHT22;67061;48.524;9.040;2023-11-19T12:17:48;13.90;89.60
77865;DHT22;67061;48.524;9.040;2023-11-19T12:20:20;13.90;90.10
77865;DHT22;67061;48.524;9.040;2023-11-19T12:22:49;13.90;90.90
77865;DHT22;67061;48.524;9.040;2023-11-19T12:25:16;13.90;90.70
77865;DHT22;67061;48.524;9.040;2023-11-19T12:27:45;14.00;89.60
77865;DHT22;67061;48.524;9.040;2023-11-19T12:30:16;14.10;90.90
77865;DHT22;67061;48.524;9.040;2023-11-19T12:32:45;14.10;90.00
77865;DHT22;67061;48.524;9.040;2023-11-19T12:35:12;14.30;87.00
77865;DHT22;67061;48.524;9.040;2023-11-19T12:37:44;14.30;87.50
77865;DHT22;67061;48.524;9.040;2023-11-19T12:40:15;14.70;86.30
77865;DHT22;67061;48.524;9.040;2023-11-19T12:42:43;14.90;86.90
77865;DHT22;67061;48.524;9.040;2023-11-19T12:45:10;15.00;83.40
77865;DHT22;67061;48.524;9.040;2023-11-19T12:47:38;15.00;82.00
77865;DHT22;67061;48.524;9.040;2023-11-19T12:50:06;14.90;84.80
77865;DHT22;67061;48.524;9.040;2023-11-19T12:52:34;14.90;80.30
77865;DHT22;67061;48.524;9.040;2023-11-19T12:55:02;14.80;80.50
77865;DHT22;67061;48.524;9.040;2023-11-19T12:57:36;14.80;82.60
77865;DHT22;67061;48.524;9.040;2023-11-19T13:00:04;14.60;80.70
77865;DHT22;67061;48.524;9.040;2023-11-19T13:02:47;14.70;80.50
77865;DHT22;67061;48.524;9.040;2023-11-19T13:05:25;14.70;80.50
77865;DHT22;67061;48.524;9.040;2023-11-19T13:08:03;14.60;79.70
77865;DHT22;67061;48.524;9.040;2023-11-19T13:10:32;14.70;80.80
77865;DHT22;67061;48.524;9.040;2023-11-19T13:15:40;15.10;78.40
77865;DHT22;67061;48.524;9.040;2023-11-19T13:18:08;15.00;78.30
77865;DHT22;67061;48.524;9.040;2023-11-19T13:20:35;14.90;77.70
77865;DHT22;67061;48.524;9.040;2023-11-19T13:23:03;14.70;78.40
77865;DHT22;67061;48.524;9.040;2023-11-19T13:25:32;14.60;77.50
77865;DHT22;67061;48.524;9.040;2023-11-19T13:27:59;14.60;78.00
77865;DHT22;67061;48.524;9.040;2023-11-19T13:30:26;14.60;78.90
77865;DHT22;67061;48.524;9.040;2023-11-19T13:32:54;14.70;79.50
77865;DHT22;67061;48.524;9.040;2023-11-19T13:35:22;14.80;78.90
77865;DHT22;67061;48.524;9.040;2023-11-19T13:37:49;14.80;78.90
77865;DHT22;67061;48.524;9.040;2023-11-19T13:40:17;14.80;79.80
77865;DHT22;67061;48.524;9.040;2023-11-19T13:42:46;14.80;79.60
77865;DHT22;67061;48.524;9.040;2023-11-19T13:45:14;14.90;80.30
77865;DHT22;67061;48.524;9.040;2023-11-19T13:47:42;15.00;80.00
77865;DHT22;67061;48.524;9.040;2023-11-19T13:50:09;15.00;79.80
77865;DHT22;67061;48.524;9.040;2023-11-19T13:52:37;14.90;79.40
77865;DHT22;67061;48.524;9.040;2023-11-19T13:55:06;14.90;79.60
77865;DHT22;67061;48.524;9.040;2023-11-19T13:57:34;14.90;80.20
77865;DHT22;67061;48.524;9.040;2023-11-19T14:00:03;14.80;79.10
77865;DHT22;67061;48.524;9.040;2023-11-19T14:02:32;14.80;79.10
77865;DHT22;67061;48.524;9.040;2023-11-19T14:04:59;14.70;77.80
77865;DHT22;67061;48.524;9.040;2023-11-19T14:07:26;14.50;79.10
77865;DHT22;67061;48.524;9.040;2023-11-19T14:09:53;14.40;79.70
77865;DHT22;67061;48.524;9.040;2023-11-19T14:12:20;14.40;79.50
77865;DHT22;67061;48.524;9.040;2023-11-19T14:14:47;14.40;79.20
77865;DHT22;67061;48.524;9.040;2023-11-19T14:17:16;14.30;79.60
77865;DHT22;67061;48.524;9.040;2023-11-19T14:19:42;14.30;77.60
77865;DHT22;67061;48.524;9.040;2023-11-19T14:22:09;14.40;78.30
77865;DHT22;67061;48.524;9.040;2023-11-19T14:24:37;14.40;79.00
77865;DHT22;67061;48.524;9.040;2023-11-19T14:27:05;14.30;79.50
77865;DHT22;67061;48.524;9.040;2023-11-19T14:29:32;14.20;79.80
77865;DHT22;67061;48.524;9.040;2023-11-19T14:32:00;14.10;78.70
77865;DHT22;67061;48.524;9.040;2023-11-19T14:34:29;14.00;80.30
77865;DHT22;67061;48.524;9.040;2023-11-19T14:36:56;13.90;80.70
77865;DHT22;67061;48.524;9.040;2023-11-19T14:39:23;13.90;80.50
77865;DHT22;67061;48.524;9.040;2023-11-19T14:41:50;13.90;81.50
77865;DHT22;67061;48.524;9.040;2023-11-19T14:44:18;13.90;82.00
77865;DHT22;67061;48.524;9.040;2023-11-19T14:46:45;13.80;83.00
77865;DHT22;67061;48.524;9.040;2023-11-19T14:49:12;13.80;83.00
77865;DHT22;67061;48.524;9.040;2023-11-19T14:51:41;13.80;82.90
77865;DHT22;67061;48.524;9.040;2023-11-19T14:54:08;13.80;84.00
77865;DHT22;67061;48.524;9.040;2023-11-19T14:56:35;13.80;83.80
77865;DHT22;67061;48.524;9.040;2023-11-19T14:59:03;13.90;83.90
77865;DHT22;67061;48.524;9.040;2023-11-19T15:01:30;13.80;83.70
77865;DHT22;67061;48.524;9.040;2023-11-19T15:03:57;13.70;83.60
77865;DHT22;67061;48.524;9.040;2023-11-19T15:06:25;13.70;83.00
77865;DHT22;67061;48.524;9.040;2023-11-19T15:08:54;13.70;83.40
77865;DHT22;67061;48.524;9.040;2023-11-19T15:11:21;13.70;83.30
77865;DHT22;67061;48.524;9.040;2023-11-19T15:13:48;13.60;83.00
77865;DHT22;67061;48.524;9.040;2023-11-19T15:16:15;13.60;82.60
77865;DHT22;67061;48.524;9.040;2023-11-19T15:18:47;13.60;81.00
77865;DHT22;67061;48.524;9.040;2023-11-19T15:21:14;13.60;81.70
77865;DHT22;67061;48.524;9.040;2023-11-19T15:23:42;13.50;81.60
77865;DHT22;67061;48.524;9.040;2023-11-19T15:26:10;13.50;81.10
77865;DHT22;67061;48.524;9.040;2023-11-19T15:28:37;13.30;81.80
77865;DHT22;67061;48.524;9.040;2023-11-19T15:31:04;13.30;82.20
77865;DHT22;67061;48.524;9.040;2023-11-19T15:33:31;13.20;83.00
77865;DHT22;67061;48.524;9.040;2023-11-19T15:35:58;13.10;82.30
77865;DHT22;67061;48.524;9.040;2023-11-19T15:38:26;13.10;82.50
77865;DHT22;67061;48.524;9.040;2023-11-19T15:40:52;13.10;83.20
77865;DHT22;67061;48.524;9.040;2023-11-19T15:43:21;13.00;82.80
77865;DHT22;67061;48.524;9.040;2023-11-19T15:45:48;13.00;83.60
77865;DHT22;67061;48.524;9.040;2023-11-19T15:48:15;12.90;84.20
77865;DHT22;67061;48.524;9.040;2023-11-19T15:50:41;12.80;83.70